sensor_id;sensor_type;location;lat;lon;timestamp;pressure;altitude;pressure_sealevel;temperature;humidity
21869;BME280;11099;41.564;23.296;2022-07-15T00:00:17;97500.66;;;22.52;51.46
21869;BME280;11099;41.564;23.296;2022-07-15T00:02:42;97550.00;;;22.97;50.50
21869;BME280;11099;41.564;23.296;2022-07-15T00:05:08;97497.94;;;22.42;50.63
21869;BME280;11099;41.564;23.296;2022-07-15T00:07:35;97548.78;;;22.80;50.75
21869;BME280;11099;41.564;23.296;2022-07-15T00:10:01;97504.88;;;22.32;51.37
21869;BME280;11099;41.564;23.296;2022-07-15T00:12:52;97556.50;;;22.68;51.33
21869;BME280;11099;41.564;23.296;2022-07-15T00:15:19;97508.13;;;22.87;50.09
21869;BME280;11099;41.564;23.296;2022-07-15T00:17:46;97534.88;;;23.32;49.71
21869;BME280;11099;41.564;23.296;2022-07-15T00:20:12;97549.22;;;23.50;49.57
21869;BME280;11099;41.564;23.296;2022-07-15T00:22:38;97543.78;;;22.90;51.27
21869;BME280;11099;41.564;23.296;2022-07-15T00:25:04;97471.19;;;22.37;51.75
21869;BME280;11099;41.564;23.296;2022-07-15T00:27:30;97423.50;;;22.25;51.26
21869;BME280;11099;41.564;23.296;2022-07-15T00:29:55;97399.38;;;21.88;52.19
21869;BME280;11099;41.564;23.296;2022-07-15T00:32:21;97523.56;;;22.73;52.21
21869;BME280;11099;41.564;23.296;2022-07-15T00:34:47;97535.81;;;22.17;54.89
21869;BME280;11099;41.564;23.296;2022-07-15T00:37:13;97451.47;;;21.52;54.70
21869;BME280;11099;41.564;23.296;2022-07-15T00:39:39;97432.09;;;21.47;54.76
21869;BME280;11099;41.564;23.296;2022-07-15T00:42:04;97520.19;;;21.92;55.29
21869;BME280;11099;41.564;23.296;2022-07-15T00:44:30;97409.25;;;20.86;56.66
21869;BME280;11099;41.564;23.296;2022-07-15T00:46:56;97546.84;;;21.87;56.53
21869;BME280;11099;41.564;23.296;2022-07-15T00:49:22;97526.28;;;21.75;56.35
21869;BME280;11099;41.564;23.296;2022-07-15T00:51:50;97476.59;;;21.46;56.22
21869;BME280;11099;41.564;23.296;2022-07-15T00:54:19;97540.72;;;21.93;55.80
21869;BME280;11099;41.564;23.296;2022-07-15T00:56:51;97482.50;;;21.69;55.45
21869;BME280;11099;41.564;23.296;2022-07-15T00:59:17;97543.25;;;22.38;54.39
21869;BME280;11099;41.564;23.296;2022-07-15T01:01:45;97486.19;;;22.09;53.99
21869;BME280;11099;41.564;23.296;2022-07-15T01:04:12;97549.50;;;22.56;54.14
21869;BME280;11099;41.564;23.296;2022-07-15T01:06:38;97546.81;;;22.67;53.88
21869;BME280;11099;41.564;23.296;2022-07-15T01:09:04;97533.25;;;22.59;53.33
21869;BME280;11099;41.564;23.296;2022-07-15T01:11:30;97554.63;;;22.90;52.98
21869;BME280;11099;41.564;23.296;2022-07-15T01:13:57;97546.50;;;23.00;52.72
21869;BME280;11099;41.564;23.296;2022-07-15T01:16:24;97543.41;;;23.09;51.98
21869;BME280;11099;41.564;23.296;2022-07-15T01:18:49;97503.06;;;23.00;50.87
21869;BME280;11099;41.564;23.296;2022-07-15T01:21:15;97432.31;;;21.97;52.60
21869;BME280;11099;41.564;23.296;2022-07-15T01:23:40;97513.84;;;22.61;49.65
21869;BME280;11099;41.564;23.296;2022-07-15T01:26:12;97492.47;;;22.20;50.88
21869;BME280;11099;41.564;23.296;2022-07-15T01:28:38;97511.78;;;22.19;51.71
21869;BME280;11099;41.564;23.296;2022-07-15T01:31:04;97480.69;;;21.91;51.05
21869;BME280;11099;41.564;23.296;2022-07-15T01:33:30;97540.13;;;22.28;51.38
21869;BME280;11099;41.564;23.296;2022-07-15T01:35:58;97493.19;;;21.41;52.03
21869;BME280;11099;41.564;23.296;2022-07-15T01:38:24;97468.56;;;21.60;50.46
21869;BME280;11099;41.564;23.296;2022-07-15T01:40:50;97434.44;;;21.52;50.08
21869;BME280;11099;41.564;23.296;2022-07-15T01:43:15;97523.06;;;22.28;49.95
21869;BME280;11099;41.564;23.296;2022-07-15T01:45:44;97474.59;;;22.19;49.22
21869;BME280;11099;41.564;23.296;2022-07-15T01:48:11;97541.72;;;22.37;50.72
21869;BME280;11099;41.564;23.296;2022-07-15T01:50:59;97531.06;;;21.99;53.38
21869;BME280;11099;41.564;23.296;2022-07-15T01:53:25;97515.16;;;21.94;53.73
21869;BME280;11099;41.564;23.296;2022-07-15T01:55:51;97536.56;;;22.10;54.35
21869;BME280;11099;41.564;23.296;2022-07-15T01:58:17;97501.81;;;21.57;55.28
21869;BME280;11099;41.564;23.296;2022-07-15T02:00:42;97433.34;;;21.01;55.79
21869;BME280;11099;41.564;23.296;2022-07-15T02:03:08;97509.78;;;21.98;54.52
21869;BME280;11099;41.564;23.296;2022-07-15T02:05:35;97536.06;;;21.97;53.69
21869;BME280;11099;41.564;23.296;2022-07-15T02:08:01;97537.59;;;21.88;53.88
21869;BME280;11099;41.564;23.296;2022-07-15T02:10:28;97408.44;;;21.37;52.84
21869;BME280;11099;41.564;23.296;2022-07-15T02:13:13;97480.41;;;22.18;52.17
21869;BME280;11099;41.564;23.296;2022-07-15T02:15:40;97537.16;;;22.69;51.48
21869;BME280;11099;41.564;23.296;2022-07-15T02:18:07;97535.50;;;22.32;52.25
21869;BME280;11099;41.564;23.296;2022-07-15T02:20:33;97538.59;;;22.34;52.08
21869;BME280;11099;41.564;23.296;2022-07-15T02:23:00;97518.63;;;21.91;51.21
21869;BME280;11099;41.564;23.296;2022-07-15T02:25:29;97536.81;;;21.87;51.77
21869;BME280;11099;41.564;23.296;2022-07-15T02:27:56;97422.59;;;21.12;51.56
21869;BME280;11099;41.564;23.296;2022-07-15T02:30:27;97524.00;;;21.84;50.68
21869;BME280;11099;41.564;23.296;2022-07-15T02:32:53;97503.50;;;21.83;50.46
21869;BME280;11099;41.564;23.296;2022-07-15T02:35:18;97502.72;;;21.86;50.36
21869;BME280;11099;41.564;23.296;2022-07-15T02:37:45;97510.75;;;21.61;50.58
21869;BME280;11099;41.564;23.296;2022-07-15T02:40:10;97485.50;;;20.95;51.93
21869;BME280;11099;41.564;23.296;2022-07-15T02:42:36;97544.63;;;21.41;51.75
21869;BME280;11099;41.564;23.296;2022-07-15T02:45:03;97482.28;;;21.30;50.50
21869;BME280;11099;41.564;23.296;2022-07-15T02:47:28;97543.00;;;21.91;49.69
21869;BME280;11099;41.564;23.296;2022-07-15T02:49:54;97492.34;;;21.29;50.32
21869;BME280;11099;41.564;23.296;2022-07-15T02:52:20;97558.50;;;21.91;49.81
21869;BME280;11099;41.564;23.296;2022-07-15T02:54:46;97525.72;;;21.48;50.59
21869;BME280;11099;41.564;23.296;2022-07-15T02:57:12;97537.38;;;21.48;50.68
21869;BME280;11099;41.564;23.296;2022-07-15T02:59:38;97546.66;;;21.51;50.83
21869;BME280;11099;41.564;23.296;2022-07-15T03:02:03;97549.75;;;21.53;50.71
21869;BME280;11099;41.564;23.296;2022-07-15T03:04:29;97548.34;;;21.73;50.23
21869;BME280;11099;41.564;23.296;2022-07-15T03:06:54;97437.94;;;20.94;50.18
21869;BME280;11099;41.564;23.296;2022-07-15T03:09:20;97477.84;;;21.08;50.85
21869;BME280;11099;41.564;23.296;2022-07-15T03:11:45;97537.00;;;21.09;52.02
21869;BME280;11099;41.564;23.296;2022-07-15T03:14:11;97467.09;;;20.67;52.17
21869;BME280;11099;41.564;23.296;2022-07-15T03:16:36;97497.91;;;20.55;54.43
21869;BME280;11099;41.564;23.296;2022-07-15T03:19:02;97553.81;;;20.85;56.18
21869;BME280;11099;41.564;23.296;2022-07-15T03:21:28;97497.19;;;20.65;57.54
21869;BME280;11099;41.564;23.296;2022-07-15T03:23:53;97546.56;;;20.96;58.32
21869;BME280;11099;41.564;23.296;2022-07-15T03:26:19;97518.06;;;21.05;56.90
21869;BME280;11099;41.564;23.296;2022-07-15T03:28:46;97547.91;;;21.16;57.84
21869;BME280;11099;41.564;23.296;2022-07-15T03:31:12;97535.47;;;21.56;55.66
21869;BME280;11099;41.564;23.296;2022-07-15T03:33:37;97519.50;;;21.40;56.76
21869;BME280;11099;41.564;23.296;2022-07-15T03:36:03;97426.78;;;21.02;54.95
21869;BME280;11099;41.564;23.296;2022-07-15T03:38:31;97479.81;;;21.66;54.18
21869;BME280;11099;41.564;23.296;2022-07-15T03:40:56;97467.50;;;21.20;55.10
21869;BME280;11099;41.564;23.296;2022-07-15T03:43:22;97533.78;;;22.03;54.22
21869;BME280;11099;41.564;23.296;2022-07-15T03:45:52;97512.50;;;22.05;52.62
21869;BME280;11099;41.564;23.296;2022-07-15T03:48:18;97524.94;;;22.13;51.41
21869;BME280;11099;41.564;23.296;2022-07-15T03:50:43;97471.97;;;22.37;49.74
21869;BME280;11099;41.564;23.296;2022-07-15T03:53:09;97510.38;;;23.60;47.92
21869;BME280;11099;41.564;23.296;2022-07-15T03:55:34;97552.38;;;24.65;45.96
21869;BME280;11099;41.564;23.296;2022-07-15T03:58:01;97471.81;;;24.78;43.65
21869;BME280;11099;41.564;23.296;2022-07-15T04:00:27;97543.19;;;24.37;48.22
21869;BME280;11099;41.564;23.296;2022-07-15T04:02:52;97508.06;;;23.59;50.14
21869;BME280;11099;41.564;23.296;2022-07-15T04:05:18;97437.13;;;23.25;49.79
21869;BME280;11099;41.564;23.296;2022-07-15T04:07:43;97489.34;;;23.97;49.13
21869;BME280;11099;41.564;23.296;2022-07-15T04:10:09;97455.25;;;25.07;46.48
21869;BME280;11099;41.564;23.296;2022-07-15T04:12:35;97459.16;;;26.15;43.38
21869;BME280;11099;41.564;23.296;2022-07-15T04:15:00;97546.38;;;27.34;40.49
21869;BME280;11099;41.564;23.296;2022-07-15T04:17:26;97468.78;;;27.71;38.74
21869;BME280;11099;41.564;23.296;2022-07-15T04:19:51;97483.97;;;28.32;36.78
21869;BME280;11099;41.564;23.296;2022-07-15T04:22:17;97538.97;;;29.10;35.92
21869;BME280;11099;41.564;23.296;2022-07-15T04:24:42;97521.56;;;29.17;35.96
21869;BME280;11099;41.564;23.296;2022-07-15T04:27:08;97492.00;;;28.75;35.64
21869;BME280;11099;41.564;23.296;2022-07-15T04:29:33;97439.53;;;26.55;37.70
21869;BME280;11099;41.564;23.296;2022-07-15T04:32:01;97450.09;;;25.57;40.61
21869;BME280;11099;41.564;23.296;2022-07-15T04:34:26;97464.88;;;26.24;39.04
21869;BME280;11099;41.564;23.296;2022-07-15T04:36:52;97559.91;;;26.91;38.93
21869;BME280;11099;41.564;23.296;2022-07-15T04:39:17;97557.63;;;26.59;39.47
21869;BME280;11099;41.564;23.296;2022-07-15T04:41:43;97557.44;;;27.00;38.26
21869;BME280;11099;41.564;23.296;2022-07-15T04:44:09;97476.88;;;25.66;39.61
21869;BME280;11099;41.564;23.296;2022-07-15T04:46:34;97453.78;;;26.08;38.57
21869;BME280;11099;41.564;23.296;2022-07-15T04:49:00;97542.25;;;26.72;38.03
21869;BME280;11099;41.564;23.296;2022-07-15T04:51:44;97533.72;;;25.64;41.02
21869;BME280;11099;41.564;23.296;2022-07-15T04:54:09;97539.56;;;26.04;39.66
21869;BME280;11099;41.564;23.296;2022-07-15T04:56:35;97512.19;;;26.45;39.15
21869;BME280;11099;41.564;23.296;2022-07-15T04:59:00;97568.56;;;25.90;41.05
21869;BME280;11099;41.564;23.296;2022-07-15T05:01:26;97521.69;;;25.61;41.01
21869;BME280;11099;41.564;23.296;2022-07-15T05:03:51;97443.94;;;25.05;41.53
21869;BME280;11099;41.564;23.296;2022-07-15T05:06:17;97527.72;;;26.17;40.32
21869;BME280;11099;41.564;23.296;2022-07-15T05:08:42;97466.91;;;25.04;42.32
21869;BME280;11099;41.564;23.296;2022-07-15T05:11:08;97551.38;;;25.93;41.61
21869;BME280;11099;41.564;23.296;2022-07-15T05:13:36;97570.25;;;25.73;41.70
21869;BME280;11099;41.564;23.296;2022-07-15T05:16:02;97477.78;;;25.52;40.41
21869;BME280;11099;41.564;23.296;2022-07-15T05:18:27;97530.22;;;26.05;39.52
21869;BME280;11099;41.564;23.296;2022-07-15T05:20:53;97561.56;;;27.12;38.70
21869;BME280;11099;41.564;23.296;2022-07-15T05:23:18;97470.47;;;25.83;39.13
21869;BME280;11099;41.564;23.296;2022-07-15T05:25:44;97495.84;;;26.95;37.54
21869;BME280;11099;41.564;23.296;2022-07-15T05:28:10;97480.97;;;26.96;37.32
21869;BME280;11099;41.564;23.296;2022-07-15T05:30:37;97523.00;;;27.29;37.04
21869;BME280;11099;41.564;23.296;2022-07-15T05:33:03;97474.06;;;28.38;35.10
21869;BME280;11099;41.564;23.296;2022-07-15T05:35:28;97514.66;;;28.96;34.05
21869;BME280;11099;41.564;23.296;2022-07-15T05:37:54;97509.66;;;28.38;35.23
21869;BME280;11099;41.564;23.296;2022-07-15T05:40:20;97482.88;;;28.98;33.66
21869;BME280;11099;41.564;23.296;2022-07-15T05:42:46;97553.81;;;28.76;34.33
21869;BME280;11099;41.564;23.296;2022-07-15T05:45:12;97575.78;;;27.97;36.20
21869;BME280;11099;41.564;23.296;2022-07-15T05:47:37;97528.94;;;26.74;37.53
21869;BME280;11099;41.564;23.296;2022-07-15T05:50:04;97556.56;;;27.07;38.24
21869;BME280;11099;41.564;23.296;2022-07-15T05:52:29;97566.03;;;28.72;35.47
21869;BME280;11099;41.564;23.296;2022-07-15T05:54:55;97546.19;;;28.68;35.73
21869;BME280;11099;41.564;23.296;2022-07-15T05:57:21;97560.91;;;28.38;36.06
21869;BME280;11099;41.564;23.296;2022-07-15T05:59:47;97468.56;;;27.82;35.81
21869;BME280;11099;41.564;23.296;2022-07-15T06:02:12;97475.59;;;28.03;35.54
21869;BME280;11099;41.564;23.296;2022-07-15T06:04:39;97534.44;;;28.67;35.88
21869;BME280;11099;41.564;23.296;2022-07-15T06:07:05;97560.94;;;28.74;36.05
21869;BME280;11099;41.564;23.296;2022-07-15T06:09:31;97539.28;;;28.43;36.00
21869;BME280;11099;41.564;23.296;2022-07-15T06:11:56;97455.88;;;27.92;36.57
21869;BME280;11099;41.564;23.296;2022-07-15T06:14:23;97547.59;;;28.56;36.46
21869;BME280;11099;41.564;23.296;2022-07-15T06:16:49;97475.47;;;28.26;36.46
21869;BME280;11099;41.564;23.296;2022-07-15T06:19:15;97443.09;;;27.85;36.79
21869;BME280;11099;41.564;23.296;2022-07-15T06:21:40;97568.28;;;28.77;36.39
21869;BME280;11099;41.564;23.296;2022-07-15T06:24:06;97514.75;;;28.56;36.30
21869;BME280;11099;41.564;23.296;2022-07-15T06:26:32;97519.38;;;28.59;36.41
21869;BME280;11099;41.564;23.296;2022-07-15T06:28:57;97555.78;;;28.40;36.92
21869;BME280;11099;41.564;23.296;2022-07-15T06:31:23;97513.47;;;28.24;36.95
21869;BME280;11099;41.564;23.296;2022-07-15T06:33:48;97522.84;;;27.40;37.76
21869;BME280;11099;41.564;23.296;2022-07-15T06:36:14;97453.69;;;28.03;36.89
21869;BME280;11099;41.564;23.296;2022-07-15T06:38:39;97516.09;;;29.00;35.76
21869;BME280;11099;41.564;23.296;2022-07-15T06:41:05;97502.25;;;29.07;35.69
21869;BME280;11099;41.564;23.296;2022-07-15T06:43:30;97550.38;;;29.41;35.36
21869;BME280;11099;41.564;23.296;2022-07-15T06:45:56;97504.13;;;28.94;36.18
21869;BME280;11099;41.564;23.296;2022-07-15T06:48:21;97444.88;;;28.31;35.87
21869;BME280;11099;41.564;23.296;2022-07-15T06:50:47;97536.41;;;28.67;36.53
21869;BME280;11099;41.564;23.296;2022-07-15T06:53:12;97479.13;;;28.56;35.98
21869;BME280;11099;41.564;23.296;2022-07-15T06:55:38;97542.84;;;28.96;35.99
21869;BME280;11099;41.564;23.296;2022-07-15T06:58:03;97405.88;;;28.07;35.67
21869;BME280;11099;41.564;23.296;2022-07-15T07:00:29;97490.91;;;28.89;35.70
21869;BME280;11099;41.564;23.296;2022-07-15T07:02:54;97499.28;;;29.47;34.77
21869;BME280;11099;41.564;23.296;2022-07-15T07:05:20;97491.94;;;29.73;34.14
21869;BME280;11099;41.564;23.296;2022-07-15T07:07:46;97501.00;;;29.57;34.54
21869;BME280;11099;41.564;23.296;2022-07-15T07:10:12;97529.22;;;30.00;34.22
21869;BME280;11099;41.564;23.296;2022-07-15T07:12:38;97525.84;;;30.08;34.30
21869;BME280;11099;41.564;23.296;2022-07-15T07:15:04;97478.19;;;29.44;34.79
21869;BME280;11099;41.564;23.296;2022-07-15T07:17:31;97410.94;;;28.78;34.84
21869;BME280;11099;41.564;23.296;2022-07-15T07:19:56;97495.88;;;29.27;35.58
21869;BME280;11099;41.564;23.296;2022-07-15T07:22:22;97494.25;;;29.29;35.70
21869;BME280;11099;41.564;23.296;2022-07-15T07:24:47;97491.06;;;29.31;35.76
21869;BME280;11099;41.564;23.296;2022-07-15T07:27:13;97532.22;;;30.47;34.06
21869;BME280;11099;41.564;23.296;2022-07-15T07:29:39;97492.13;;;30.50;33.85
21869;BME280;11099;41.564;23.296;2022-07-15T07:32:05;97505.75;;;29.70;34.57
21869;BME280;11099;41.564;23.296;2022-07-15T07:34:30;97438.28;;;29.27;35.08
21869;BME280;11099;41.564;23.296;2022-07-15T07:36:58;97495.06;;;29.59;34.86
21869;BME280;11099;41.564;23.296;2022-07-15T07:39:24;97519.00;;;29.58;34.88
21869;BME280;11099;41.564;23.296;2022-07-15T07:41:49;97467.63;;;29.13;35.38
21869;BME280;11099;41.564;23.296;2022-07-15T07:44:19;97520.25;;;29.70;34.97
21869;BME280;11099;41.564;23.296;2022-07-15T07:46:45;97381.44;;;29.44;34.00
21869;BME280;11099;41.564;23.296;2022-07-15T07:49:10;97427.94;;;30.31;33.53
21869;BME280;11099;41.564;23.296;2022-07-15T07:51:38;97514.25;;;30.72;33.65
21869;BME280;11099;41.564;23.296;2022-07-15T07:54:06;97461.09;;;30.11;33.61
21869;BME280;11099;41.564;23.296;2022-07-15T07:56:32;97443.47;;;29.54;34.68
21869;BME280;11099;41.564;23.296;2022-07-15T07:58:58;97489.84;;;30.06;34.39
21869;BME280;11099;41.564;23.296;2022-07-15T08:01:23;97468.94;;;29.83;35.33
21869;BME280;11099;41.564;23.296;2022-07-15T08:03:49;97490.91;;;29.96;35.05
21869;BME280;11099;41.564;23.296;2022-07-15T08:06:16;97499.22;;;29.80;35.18
21869;BME280;11099;41.564;23.296;2022-07-15T08:08:42;97471.31;;;29.69;35.36
21869;BME280;11099;41.564;23.296;2022-07-15T08:11:10;97500.63;;;30.13;34.34
21869;BME280;11099;41.564;23.296;2022-07-15T08:13:35;97489.03;;;30.22;34.96
21869;BME280;11099;41.564;23.296;2022-07-15T08:16:01;97382.53;;;29.88;33.99
21869;BME280;11099;41.564;23.296;2022-07-15T08:18:27;97490.88;;;30.38;33.69
21869;BME280;11099;41.564;23.296;2022-07-15T08:20:53;97397.84;;;29.60;34.14
21869;BME280;11099;41.564;23.296;2022-07-15T08:23:19;97500.56;;;30.30;34.32
21869;BME280;11099;41.564;23.296;2022-07-15T08:25:49;97448.06;;;30.40;33.75
21869;BME280;11099;41.564;23.296;2022-07-15T08:28:15;97489.81;;;30.86;33.33
21869;BME280;11099;41.564;23.296;2022-07-15T08:30:41;97482.25;;;31.38;32.64
21869;BME280;11099;41.564;23.296;2022-07-15T08:33:07;97445.13;;;31.08;32.70
21869;BME280;11099;41.564;23.296;2022-07-15T08:35:32;97461.41;;;31.02;33.15
21869;BME280;11099;41.564;23.296;2022-07-15T08:38:03;97462.75;;;31.10;32.97
21869;BME280;11099;41.564;23.296;2022-07-15T08:40:31;97424.09;;;30.66;32.83
21869;BME280;11099;41.564;23.296;2022-07-15T08:42:57;97473.19;;;31.03;31.82
21869;BME280;11099;41.564;23.296;2022-07-15T08:45:22;97372.44;;;30.61;31.54
21869;BME280;11099;41.564;23.296;2022-07-15T08:47:51;97435.50;;;31.38;31.27
21869;BME280;11099;41.564;23.296;2022-07-15T08:50:17;97469.97;;;31.17;32.17
21869;BME280;11099;41.564;23.296;2022-07-15T08:52:45;97397.59;;;30.85;32.43
21869;BME280;11099;41.564;23.296;2022-07-15T08:55:12;97390.41;;;30.28;32.70
21869;BME280;11099;41.564;23.296;2022-07-15T08:57:38;97460.97;;;31.16;32.13
21869;BME280;11099;41.564;23.296;2022-07-15T09:00:05;97463.00;;;31.38;32.02
21869;BME280;11099;41.564;23.296;2022-07-15T09:02:36;97415.06;;;31.26;31.55
21869;BME280;11099;41.564;23.296;2022-07-15T09:05:23;97459.28;;;31.75;30.89
21869;BME280;11099;41.564;23.296;2022-07-15T09:07:59;97426.47;;;31.81;30.71
21869;BME280;11099;41.564;23.296;2022-07-15T09:13:07;97451.34;;;31.34;32.03
21869;BME280;11099;41.564;23.296;2022-07-15T09:15:35;97457.97;;;31.58;31.36
21869;BME280;11099;41.564;23.296;2022-07-15T09:18:05;97460.00;;;31.67;31.71
21869;BME280;11099;41.564;23.296;2022-07-15T09:20:32;97386.81;;;31.26;31.44
21869;BME280;11099;41.564;23.296;2022-07-15T09:22:58;97442.09;;;31.40;30.73
21869;BME280;11099;41.564;23.296;2022-07-15T09:25:26;97447.97;;;31.73;29.69
21869;BME280;11099;41.564;23.296;2022-07-15T09:27:53;97446.75;;;31.53;30.60
21869;BME280;11099;41.564;23.296;2022-07-15T09:30:31;97440.66;;;31.36;30.64
21869;BME280;11099;41.564;23.296;2022-07-15T09:33:25;97433.84;;;31.84;29.54
21869;BME280;11099;41.564;23.296;2022-07-15T09:36:20;97443.13;;;31.56;29.76
21869;BME280;11099;41.564;23.296;2022-07-15T09:38:52;97438.25;;;31.38;30.25
21869;BME280;11099;41.564;23.296;2022-07-15T09:44:12;97413.16;;;31.36;29.93
21869;BME280;11099;41.564;23.296;2022-07-15T09:46:44;97333.22;;;30.61;29.80
21869;BME280;11099;41.564;23.296;2022-07-15T09:49:12;97429.03;;;31.54;29.83
21869;BME280;11099;41.564;23.296;2022-07-15T09:51:47;97376.91;;;31.50;29.83
21869;BME280;11099;41.564;23.296;2022-07-15T09:54:13;97350.63;;;31.14;30.58
21869;BME280;11099;41.564;23.296;2022-07-15T09:56:39;97430.19;;;32.09;29.66
21869;BME280;11099;41.564;23.296;2022-07-15T09:59:05;97384.13;;;32.10;29.24
21869;BME280;11099;41.564;23.296;2022-07-15T10:01:32;97378.53;;;31.91;29.44
21869;BME280;11099;41.564;23.296;2022-07-15T10:03:57;97401.03;;;32.30;29.64
21869;BME280;11099;41.564;23.296;2022-07-15T10:06:26;97399.19;;;32.27;29.28
21869;BME280;11099;41.564;23.296;2022-07-15T10:08:53;97368.22;;;32.14;28.90
21869;BME280;11099;41.564;23.296;2022-07-15T10:11:20;97387.06;;;32.24;28.66
21869;BME280;11099;41.564;23.296;2022-07-15T10:13:54;97403.03;;;32.79;28.53
21869;BME280;11099;41.564;23.296;2022-07-15T10:16:48;97395.59;;;32.39;29.33
21869;BME280;11099;41.564;23.296;2022-07-15T10:19:49;97379.84;;;32.49;28.70
21869;BME280;11099;41.564;23.296;2022-07-15T10:25:25;97393.09;;;32.91;28.32
21869;BME280;11099;41.564;23.296;2022-07-15T10:28:08;97379.44;;;32.78;28.63
21869;BME280;11099;41.564;23.296;2022-07-15T10:30:35;97384.44;;;32.52;28.83
21869;BME280;11099;41.564;23.296;2022-07-15T10:33:18;97369.00;;;32.55;28.87
21869;BME280;11099;41.564;23.296;2022-07-15T10:36:03;97343.31;;;32.76;28.34
21869;BME280;11099;41.564;23.296;2022-07-15T10:38:31;97383.06;;;32.47;28.64
21869;BME280;11099;41.564;23.296;2022-07-15T10:41:02;97301.16;;;31.89;28.75
21869;BME280;11099;41.564;23.296;2022-07-15T10:46:28;97369.75;;;32.55;28.17
21869;BME280;11099;41.564;23.296;2022-07-15T10:54:01;97357.13;;;33.03;28.26
21869;BME280;11099;41.564;23.296;2022-07-15T10:56:35;97354.53;;;33.00;28.68
21869;BME280;11099;41.564;23.296;2022-07-15T11:01:36;97366.19;;;33.41;27.20
21869;BME280;11099;41.564;23.296;2022-07-15T11:04:17;97342.56;;;33.21;27.30
21869;BME280;11099;41.564;23.296;2022-07-15T11:12:54;97308.25;;;32.86;27.19
21869;BME280;11099;41.564;23.296;2022-07-15T11:15:15;97328.88;;;33.54;26.62
21869;BME280;11099;41.564;23.296;2022-07-15T11:17:49;97338.28;;;33.90;26.45
21869;BME280;11099;41.564;23.296;2022-07-15T11:20:17;97289.81;;;33.47;26.79
21869;BME280;11099;41.564;23.296;2022-07-15T11:22:49;97335.19;;;33.46;27.11
21869;BME280;11099;41.564;23.296;2022-07-15T11:27:58;97326.44;;;32.83;28.48
21869;BME280;11099;41.564;23.296;2022-07-15T11:30:30;97278.38;;;32.47;28.11
21869;BME280;11099;41.564;23.296;2022-07-15T11:32:59;97225.88;;;32.42;27.80
21869;BME280;11099;41.564;23.296;2022-07-15T11:35:25;97328.28;;;32.77;27.53
21869;BME280;11099;41.564;23.296;2022-07-15T11:37:58;97327.38;;;32.80;27.60
21869;BME280;11099;41.564;23.296;2022-07-15T11:40:24;97270.25;;;32.90;27.77
21869;BME280;11099;41.564;23.296;2022-07-15T11:43:16;97312.66;;;33.38;28.04
21869;BME280;11099;41.564;23.296;2022-07-15T11:46:00;97280.50;;;33.17;27.81
21869;BME280;11099;41.564;23.296;2022-07-15T11:48:26;97304.56;;;33.16;27.25
21869;BME280;11099;41.564;23.296;2022-07-15T11:50:54;97315.59;;;33.07;27.72
21869;BME280;11099;41.564;23.296;2022-07-15T11:53:20;97311.47;;;33.12;28.05
21869;BME280;11099;41.564;23.296;2022-07-15T11:55:54;97306.56;;;33.07;27.49
21869;BME280;11099;41.564;23.296;2022-07-15T11:58:38;97290.84;;;32.30;28.25
21869;BME280;11099;41.564;23.296;2022-07-15T12:01:07;97314.31;;;32.44;28.49
21869;BME280;11099;41.564;23.296;2022-07-15T12:03:35;97248.78;;;32.20;28.17
21869;BME280;11099;41.564;23.296;2022-07-15T12:06:13;97248.06;;;32.75;28.72
21869;BME280;11099;41.564;23.296;2022-07-15T12:08:44;97300.25;;;33.43;27.07
21869;BME280;11099;41.564;23.296;2022-07-15T12:11:31;97274.97;;;33.26;26.92
21869;BME280;11099;41.564;23.296;2022-07-15T12:14:00;97303.66;;;32.64;27.55
21869;BME280;11099;41.564;23.296;2022-07-15T12:16:27;97305.19;;;33.02;27.23
21869;BME280;11099;41.564;23.296;2022-07-15T12:18:55;97262.91;;;33.14;26.31
21869;BME280;11099;41.564;23.296;2022-07-15T12:21:22;97259.47;;;33.28;26.53
21869;BME280;11099;41.564;23.296;2022-07-15T12:23:59;97261.53;;;33.61;26.25
21869;BME280;11099;41.564;23.296;2022-07-15T12:26:25;97225.13;;;33.29;26.35
21869;BME280;11099;41.564;23.296;2022-07-15T12:29:00;97276.38;;;33.73;26.65
21869;BME280;11099;41.564;23.296;2022-07-15T12:31:28;97235.25;;;33.33;27.31
21869;BME280;11099;41.564;23.296;2022-07-15T12:33:54;97198.63;;;32.53;27.08
21869;BME280;11099;41.564;23.296;2022-07-15T12:36:23;97183.44;;;32.76;27.24
21869;BME280;11099;41.564;23.296;2022-07-15T12:39:03;97239.97;;;33.50;26.80
21869;BME280;11099;41.564;23.296;2022-07-15T12:41:29;97223.88;;;33.40;26.53
21869;BME280;11099;41.564;23.296;2022-07-15T12:43:58;97273.69;;;33.54;26.71
21869;BME280;11099;41.564;23.296;2022-07-15T12:46:57;97272.50;;;33.37;26.61
21869;BME280;11099;41.564;23.296;2022-07-15T12:49:44;97272.97;;;33.26;26.56
21869;BME280;11099;41.564;23.296;2022-07-15T12:52:32;97203.50;;;32.67;27.35
21869;BME280;11099;41.564;23.296;2022-07-15T12:55:11;97273.25;;;33.28;26.86
21869;BME280;11099;41.564;23.296;2022-07-15T12:57:37;97275.00;;;33.08;26.75
21869;BME280;11099;41.564;23.296;2022-07-15T13:00:21;97254.00;;;33.19;26.29
21869;BME280;11099;41.564;23.296;2022-07-15T13:03:07;97264.94;;;33.56;27.05
21869;BME280;11099;41.564;23.296;2022-07-15T13:05:37;97277.84;;;33.92;26.60
21869;BME280;11099;41.564;23.296;2022-07-15T13:08:11;97232.31;;;33.45;26.94
21869;BME280;11099;41.564;23.296;2022-07-15T13:10:37;97255.47;;;33.48;26.90
21869;BME280;11099;41.564;23.296;2022-07-15T13:13:05;97124.69;;;32.42;26.93
21869;BME280;11099;41.564;23.296;2022-07-15T13:15:31;97276.31;;;33.40;27.92
21869;BME280;11099;41.564;23.296;2022-07-15T13:17:57;97241.16;;;32.70;27.66
21869;BME280;11099;41.564;23.296;2022-07-15T13:20:23;97264.91;;;32.86;28.74
21869;BME280;11099;41.564;23.296;2022-07-15T13:22:49;97222.03;;;32.76;29.03